Time;durP1;ratioP1;P1;durP2;ratioP2;P2;SDS_P1;SDS_P2;PMS_P1;PMS_P2;Temp;Humidity;BMP_temperature;BMP_pressure;BME280_temperature;BME280_humidity;BME280_pressure;Samples;Min_cycle;Max_cycle;Signal;HPM_P1;HPM_P2
2022/08/24 00:01:13;;;;;;;8.40;5.60;;;20.60;99.90;;;;;;5096367;28;20177;-68
2022/08/24 00:03:39;;;;;;;10.82;5.97;;;20.50;99.90;;;;;;5095115;28;20192;-68
2022/08/24 00:06:08;;;;;;;10.27;5.78;;;20.50;99.90;;;;;;5096392;28;20185;-68
2022/08/24 00:08:34;;;;;;;9.35;5.68;;;20.50;99.90;;;;;;5095978;28;20224;-68
2022/08/24 00:11:00;;;;;;;8.52;5.63;;;20.40;99.90;;;;;;5096231;28;20272;-68
2022/08/24 00:13:26;;;;;;;7.78;5.55;;;20.30;99.90;;;;;;5096459;28;20686;-68
2022/08/24 00:15:52;;;;;;;12.13;5.93;;;20.20;99.90;;;;;;5095760;28;20181;-68
2022/08/24 00:18:18;;;;;;;7.22;5.57;;;20.20;99.90;;;;;;5095522;28;20165;-69
2022/08/24 00:20:44;;;;;;;8.13;5.97;;;20.10;99.90;;;;;;5096281;28;20248;-68
2022/08/24 00:23:10;;;;;;;9.10;5.50;;;20.10;99.90;;;;;;5095526;28;20185;-68
2022/08/24 00:25:36;;;;;;;10.85;5.85;;;20.10;99.90;;;;;;5095694;28;20249;-68
2022/08/24 00:28:03;;;;;;;8.80;5.78;;;20.10;99.90;;;;;;5095357;28;20169;-68
2022/08/24 00:30:29;;;;;;;11.00;5.75;;;20.20;99.90;;;;;;5095500;28;20176;-68
2022/08/24 00:32:56;;;;;;;9.40;5.50;;;20.10;99.90;;;;;;5095459;28;20216;-68
2022/08/24 00:35:23;;;;;;;11.65;5.47;;;20.10;99.90;;;;;;5095466;28;20169;-68
2022/08/24 00:37:50;;;;;;;11.75;5.80;;;20.20;99.90;;;;;;5109870;28;20207;-68
2022/08/24 00:40:32;;;;;;;7.03;5.30;;;20.10;99.90;;;;;;5114473;28;20667;-68
2022/08/24 00:43:03;;;;;;;7.70;5.00;;;20.10;99.90;;;;;;5114506;27;20192;-68
2022/08/24 00:45:32;;;;;;;11.35;5.60;;;20.10;99.90;;;;;;5115862;28;20157;-68
2022/08/24 00:48:05;;;;;;;9.18;5.82;;;20.10;99.90;;;;;;5115704;28;20176;-68
2022/08/24 00:50:40;;;;;;;7.70;4.93;;;20.10;99.90;;;;;;5114475;28;20179;-68
2022/08/24 00:53:11;;;;;;;8.48;5.68;;;20.10;99.90;;;;;;5115430;28;20271;-68
2022/08/24 00:55:47;;;;;;;9.57;5.57;;;20.00;99.90;;;;;;5115742;28;20187;-68
2022/08/24 00:58:19;;;;;;;9.52;5.40;;;20.00;99.90;;;;;;5115118;28;20173;-68
2022/08/24 01:00:50;;;;;;;9.02;5.25;;;20.00;99.90;;;;;;5114044;28;20186;-68
2022/08/24 01:03:16;;;;;;;7.85;5.93;;;19.90;99.90;;;;;;5115608;27;20191;-68
2022/08/24 01:05:43;;;;;;;6.95;4.97;;;19.90;99.90;;;;;;5115270;28;20171;-68
2022/08/24 01:08:10;;;;;;;8.30;5.28;;;19.80;99.90;;;;;;5115147;28;20180;-68
2022/08/24 01:10:45;;;;;;;10.25;5.20;;;19.80;99.90;;;;;;5115185;28;20172;-68
2022/08/24 01:13:12;;;;;;;8.75;5.55;;;19.80;99.90;;;;;;5115134;28;20190;-69
2022/08/24 01:15:41;;;;;;;9.45;5.50;;;19.90;99.90;;;;;;5115143;28;20210;-68
2022/08/24 01:21:21;;;;;;;9.07;6.15;;;19.80;99.90;;;;;;5115454;28;20230;-68
2022/08/24 01:24:01;;;;;;;7.70;5.70;;;19.70;99.90;;;;;;5113179;28;20243;-68
2022/08/24 01:26:39;;;;;;;7.35;5.78;;;19.70;99.90;;;;;;5114708;28;20157;-68
2022/08/24 01:29:14;;;;;;;10.85;6.13;;;19.80;99.90;;;;;;5113850;28;20179;-68
2022/08/24 01:31:40;;;;;;;9.60;6.20;;;19.70;99.90;;;;;;5113477;28;20179;-68
2022/08/24 01:34:06;;;;;;;9.07;6.15;;;19.60;99.90;;;;;;5113479;28;20176;-68
2022/08/24 01:36:36;;;;;;;10.32;5.85;;;19.60;99.90;;;;;;5114566;28;20188;-68
2022/08/24 01:39:34;;;;;;;8.50;6.07;;;19.50;99.90;;;;;;5114915;28;20200;-68
2022/08/24 01:42:01;;;;;;;9.95;5.70;;;19.40;99.90;;;;;;5110162;28;20204;-69
2022/08/24 01:44:31;;;;;;;11.35;6.93;;;19.20;99.90;;;;;;5115397;28;20256;-68
2022/08/24 01:46:57;;;;;;;11.40;6.53;;;19.10;99.90;;;;;;5113719;28;20165;-68
2022/08/24 01:49:27;;;;;;;8.98;6.03;;;19.10;99.90;;;;;;5114583;28;20184;-68
2022/08/24 01:51:53;;;;;;;8.57;5.65;;;19.10;99.90;;;;;;5114222;28;20196;-68
2022/08/24 01:54:19;;;;;;;11.18;6.32;;;19.10;99.90;;;;;;5114193;28;20187;-68
2022/08/24 01:56:45;;;;;;;10.07;6.38;;;19.10;99.90;;;;;;5114173;28;20597;-68
2022/08/24 01:59:11;;;;;;;9.05;6.28;;;19.10;99.90;;;;;;5112906;28;20629;-68
2022/08/24 02:01:41;;;;;;;8.90;6.13;;;19.00;99.90;;;;;;5114639;28;20191;-68
2022/08/24 02:04:07;;;;;;;9.63;6.15;;;18.90;99.90;;;;;;5114609;28;20192;-68
2022/08/24 02:06:33;;;;;;;11.23;5.95;;;18.90;99.90;;;;;;5114408;27;20175;-68
2022/08/24 02:09:00;;;;;;;9.50;6.65;;;18.80;99.90;;;;;;5114637;28;20173;-68
2022/08/24 02:11:26;;;;;;;11.27;6.38;;;18.60;99.90;;;;;;5114143;28;20183;-68
2022/08/24 02:13:53;;;;;;;10.93;7.00;;;18.50;99.90;;;;;;5112666;28;20321;-68
2022/08/24 02:16:19;;;;;;;8.07;6.10;;;18.50;99.90;;;;;;5114209;28;20176;-68
2022/08/24 02:18:45;;;;;;;9.40;6.47;;;18.50;99.90;;;;;;5113961;28;20204;-68
2022/08/24 02:21:12;;;;;;;7.18;5.85;;;18.50;99.90;;;;;;5114621;28;20256;-68
2022/08/24 02:23:39;;;;;;;8.75;6.40;;;18.40;99.90;;;;;;5114572;28;20210;-68
2022/08/24 02:26:07;;;;;;;10.10;6.72;;;18.40;99.90;;;;;;5114163;28;20260;-68
2022/08/24 02:28:33;;;;;;;10.80;6.78;;;18.40;99.90;;;;;;5113970;28;20175;-68
2022/08/24 02:31:00;;;;;;;9.13;5.68;;;18.50;99.90;;;;;;5113911;28;20168;-68
2022/08/24 02:33:25;;;;;;;10.15;6.82;;;18.50;99.90;;;;;;5113889;28;20271;-68
2022/08/24 02:35:53;;;;;;;9.05;6.35;;;18.50;99.90;;;;;;5112884;28;20199;-68
2022/08/24 02:38:20;;;;;;;8.13;5.72;;;18.50;99.90;;;;;;5113771;28;20652;-68
2022/08/24 02:40:46;;;;;;;7.15;5.88;;;18.50;99.90;;;;;;5114128;28;20219;-68
2022/08/24 02:43:12;;;;;;;8.88;5.95;;;18.40;99.90;;;;;;5113708;28;20762;-68
2022/08/24 02:45:43;;;;;;;8.75;6.00;;;18.40;99.90;;;;;;5114004;28;20175;-68
2022/08/24 02:48:10;;;;;;;10.45;6.50;;;18.30;99.90;;;;;;5114241;28;20197;-68
2022/08/24 02:50:41;;;;;;;8.90;6.63;;;18.30;99.90;;;;;;5113891;28;20196;-68
2022/08/24 02:53:07;;;;;;;9.70;6.72;;;18.30;99.90;;;;;;5112457;28;20196;-68
2022/08/24 02:55:33;;;;;;;8.18;6.50;;;18.20;99.90;;;;;;5113987;28;20172;-68
2022/08/24 02:57:59;;;;;;;10.13;6.60;;;18.20;99.90;;;;;;5113512;28;20205;-68
2022/08/24 03:00:26;;;;;;;7.68;6.43;;;18.20;99.90;;;;;;5112282;28;20196;-68
2022/08/24 03:02:53;;;;;;;10.35;6.93;;;18.10;99.90;;;;;;5112164;28;20333;-68
2022/08/24 03:05:20;;;;;;;9.90;6.65;;;18.00;99.90;;;;;;5114196;28;20169;-68
2022/08/24 03:07:46;;;;;;;10.30;6.53;;;18.00;99.90;;;;;;5117531;28;20255;-68
2022/08/24 03:10:12;;;;;;;13.27;6.88;;;18.00;99.90;;;;;;5116264;28;20207;-68
2022/08/24 03:12:39;;;;;;;9.25;6.20;;;17.90;99.90;;;;;;5115845;28;20670;-68
2022/08/24 03:15:08;;;;;;;10.07;6.70;;;17.90;99.90;;;;;;5117344;28;20175;-69
2022/08/24 03:17:34;;;;;;;10.90;6.85;;;17.80;99.90;;;;;;5117220;28;20164;-69
2022/08/24 03:20:01;;;;;;;10.63;6.65;;;17.80;99.90;;;;;;5117071;28;20283;-68
2022/08/24 03:22:27;;;;;;;8.52;6.53;;;17.80;99.90;;;;;;5117374;28;20189;-70
2022/08/24 03:24:53;;;;;;;12.38;7.32;;;17.70;99.90;;;;;;5115985;28;20259;-69
2022/08/24 03:27:19;;;;;;;11.15;6.63;;;17.70;99.90;;;;;;5115759;28;20200;-69
2022/08/24 03:29:45;;;;;;;9.52;6.40;;;17.60;99.90;;;;;;5117062;28;20258;-68
2022/08/24 03:32:10;;;;;;;11.15;7.38;;;17.60;99.90;;;;;;5116948;28;20557;-68
2022/08/24 03:34:36;;;;;;;9.23;7.18;;;17.60;99.90;;;;;;5117365;28;20184;-68
2022/08/24 03:37:02;;;;;;;9.27;6.47;;;17.50;99.90;;;;;;5117218;28;20207;-68
2022/08/24 03:39:28;;;;;;;11.13;6.65;;;17.50;99.90;;;;;;5117018;27;20204;-70
2022/08/24 03:41:55;;;;;;;8.82;6.15;;;17.50;99.90;;;;;;5116841;28;20168;-68
2022/08/24 03:44:20;;;;;;;8.88;6.43;;;17.50;99.90;;;;;;5116936;28;20173;-68
2022/08/24 03:46:46;;;;;;;9.85;6.78;;;17.50;99.90;;;;;;5116894;27;20175;-69
2022/08/24 03:49:13;;;;;;;14.57;6.88;;;17.50;99.90;;;;;;5116828;28;20169;-68
2022/08/24 03:51:39;;;;;;;7.93;6.47;;;17.50;99.90;;;;;;5117244;28;20202;-69
2022/08/24 03:54:08;;;;;;;9.63;6.85;;;17.50;99.90;;;;;;5117106;28;20183;-68
2022/08/24 03:56:34;;;;;;;11.35;6.95;;;17.50;99.90;;;;;;5116771;28;20656;-68
2022/08/24 03:59:00;;;;;;;8.43;6.72;;;17.50;99.90;;;;;;5116658;28;20634;-68
2022/08/24 04:01:26;;;;;;;9.63;6.53;;;17.50;99.90;;;;;;5116552;28;20179;-68
2022/08/24 04:03:54;;;;;;;8.35;6.55;;;17.40;99.90;;;;;;5116554;28;20192;-67
2022/08/24 04:06:22;;;;;;;8.13;6.40;;;17.40;99.90;;;;;;5116736;28;20175;-68
2022/08/24 04:08:48;;;;;;;10.70;7.28;;;17.40;99.90;;;;;;5115110;28;20271;-67
2022/08/24 04:11:21;;;;;;;8.48;6.90;;;17.40;99.90;;;;;;5116413;28;20204;-68
2022/08/24 04:13:49;;;;;;;9.90;6.72;;;17.30;99.90;;;;;;5116110;28;20604;-68
2022/08/24 04:16:18;;;;;;;11.18;7.03;;;17.20;99.90;;;;;;5116273;28;20180;-68
2022/08/24 04:18:45;;;;;;;10.77;7.30;;;17.20;99.90;;;;;;5114879;28;20261;-67
2022/08/24 04:21:18;;;;;;;8.60;6.75;;;17.10;99.90;;;;;;5117120;28;20161;-67
2022/08/24 04:23:44;;;;;;;10.00;6.78;;;17.10;99.90;;;;;;5117044;28;20245;-67
2022/08/24 04:26:09;;;;;;;11.43;7.80;;;17.10;99.90;;;;;;5117489;28;20152;-67
2022/08/24 04:28:35;;;;;;;11.65;6.97;;;17.10;99.90;;;;;;5114904;28;20659;-68
2022/08/24 04:31:05;;;;;;;8.85;7.30;;;17.10;99.90;;;;;;5116267;28;20259;-67
2022/08/24 04:33:31;;;;;;;8.82;6.70;;;17.10;99.90;;;;;;5115871;28;20184;-68
2022/08/24 04:35:57;;;;;;;9.25;6.82;;;17.10;99.90;;;;;;5116299;28;20168;-67
2022/08/24 04:38:23;;;;;;;8.65;7.28;;;17.00;99.90;;;;;;5115649;28;20177;-67
2022/08/24 04:40:49;;;;;;;10.23;7.18;;;17.00;99.90;;;;;;5116451;28;20183;-67
2022/08/24 04:43:16;;;;;;;11.70;7.80;;;17.00;99.90;;;;;;5115877;28;20188;-68
2022/08/24 04:45:45;;;;;;;11.82;7.53;;;16.90;99.90;;;;;;5115995;28;20641;-68
2022/08/24 04:48:11;;;;;;;10.57;7.78;;;16.90;99.90;;;;;;5116151;28;20251;-68
2022/08/24 04:50:39;;;;;;;11.07;7.47;;;17.00;99.90;;;;;;5114463;28;20184;-67
2022/08/24 04:53:06;;;;;;;13.35;8.25;;;17.00;99.90;;;;;;5115798;28;20200;-68
2022/08/24 04:55:33;;;;;;;13.30;8.18;;;17.00;99.90;;;;;;5115934;28;20192;-68
2022/08/24 04:57:59;;;;;;;14.55;8.20;;;16.90;99.90;;;;;;5113916;28;20187;-67
2022/08/24 05:00:25;;;;;;;11.05;8.15;;;17.00;99.90;;;;;;5115374;28;20245;-67
2022/08/24 05:02:51;;;;;;;10.25;7.50;;;16.90;99.90;;;;;;5115297;28;20188;-67
2022/08/24 05:05:17;;;;;;;16.50;8.77;;;16.90;99.90;;;;;;5113972;28;20660;-67
2022/08/24 05:07:43;;;;;;;11.43;8.00;;;16.90;99.90;;;;;;5113776;28;20226;-67
2022/08/24 05:10:10;;;;;;;14.25;8.63;;;16.90;99.90;;;;;;5115317;28;20176;-67
2022/08/24 05:12:37;;;;;;;15.10;9.02;;;16.90;99.90;;;;;;5115433;28;20573;-68
2022/08/24 05:15:03;;;;;;;12.82;8.48;;;16.90;99.90;;;;;;5115940;28;20176;-67
2022/08/24 05:17:29;;;;;;;10.52;8.38;;;17.00;99.90;;;;;;5114844;28;20184;-67
2022/08/24 05:19:56;;;;;;;12.48;9.07;;;17.00;99.90;;;;;;5115641;28;20211;-68
2022/08/24 05:22:22;;;;;;;9.75;7.70;;;17.00;99.90;;;;;;5116152;28;20207;-67
2022/08/24 05:24:47;;;;;;;9.27;7.53;;;17.10;99.90;;;;;;5116581;28;20630;-67
2022/08/24 05:27:14;;;;;;;12.38;7.80;;;17.10;99.90;;;;;;5116380;28;20167;-68
2022/08/24 05:29:40;;;;;;;10.90;7.65;;;17.10;99.90;;;;;;5115750;28;20240;-68
2022/08/24 05:32:06;;;;;;;10.32;7.68;;;17.20;99.90;;;;;;5115481;28;20601;-68
2022/08/24 05:34:32;;;;;;;10.68;7.78;;;17.20;99.90;;;;;;5114897;28;20225;-67
2022/08/24 05:36:57;;;;;;;12.75;7.78;;;17.20;99.90;;;;;;5114842;28;20652;-68
2022/08/24 05:39:23;;;;;;;12.13;7.70;;;17.30;99.90;;;;;;5115164;28;20207;-67
2022/08/24 05:41:49;;;;;;;11.48;7.95;;;17.30;99.90;;;;;;5114823;28;20575;-68
2022/08/24 05:44:17;;;;;;;9.63;7.30;;;17.40;99.90;;;;;;5114208;28;20584;-67
2022/08/24 05:46:43;;;;;;;10.07;7.93;;;17.40;99.90;;;;;;5114387;28;20512;-67
2022/08/24 05:49:10;;;;;;;9.75;7.25;;;17.40;99.90;;;;;;5114549;28;20167;-67
2022/08/24 05:51:37;;;;;;;15.18;8.45;;;17.50;99.90;;;;;;5113061;28;20187;-67
2022/08/24 05:54:03;;;;;;;13.52;7.75;;;17.50;99.90;;;;;;5113012;28;20203;-68
2022/08/24 05:56:29;;;;;;;8.50;7.22;;;17.60;99.90;;;;;;5114289;28;20652;-67
2022/08/24 05:58:56;;;;;;;9.88;7.65;;;17.80;99.90;;;;;;5113849;28;20196;-67
2022/08/24 06:01:24;;;;;;;10.15;7.28;;;17.90;99.90;;;;;;5114511;28;20190;-68
2022/08/24 06:03:52;;;;;;;11.30;7.80;;;18.00;99.90;;;;;;5114159;28;20195;-68
2022/08/24 06:06:20;;;;;;;10.48;8.73;;;18.10;99.90;;;;;;5114015;28;20172;-67
2022/08/24 06:08:47;;;;;;;11.48;7.82;;;18.30;99.90;;;;;;5114192;28;20211;-67
2022/08/24 06:11:23;;;;;;;14.13;8.32;;;18.40;99.90;;;;;;5114311;28;20172;-67
2022/08/24 06:13:53;;;;;;;8.07;6.28;;;18.50;99.90;;;;;;5112724;28;20688;-68
2022/08/24 06:16:20;;;;;;;8.23;6.93;;;18.70;99.90;;;;;;5114333;28;20165;-68
2022/08/24 06:18:46;;;;;;;10.00;7.35;;;18.70;99.90;;;;;;5112567;28;20577;-68
2022/08/24 06:21:15;;;;;;;9.65;6.22;;;18.80;99.90;;;;;;5114192;28;20152;-67
2022/08/24 06:23:42;;;;;;;12.40;7.05;;;19.00;99.90;;;;;;5113802;28;20195;-68
2022/08/24 06:28:53;;;;;;;9.40;6.18;;;19.20;99.90;;;;;;5114109;28;20167;-67
2022/08/24 06:31:20;;;;;;;6.82;5.93;;;19.40;99.90;;;;;;5113874;28;20172;-68
2022/08/24 06:33:46;;;;;;;6.72;5.30;;;19.50;99.90;;;;;;5113775;28;20193;-68
2022/08/24 06:36:13;;;;;;;8.07;5.95;;;19.60;99.90;;;;;;5113694;28;20169;-68
2022/08/24 06:38:38;;;;;;;8.25;5.32;;;19.70;99.90;;;;;;5112285;28;20184;-68
2022/08/24 06:41:04;;;;;;;7.13;5.05;;;19.90;99.90;;;;;;5115331;28;20171;-68
2022/08/24 06:43:30;;;;;;;9.52;6.53;;;20.00;99.90;;;;;;5117861;28;20543;-68
2022/08/24 06:45:57;;;;;;;11.00;6.38;;;20.10;99.90;;;;;;5118214;28;20164;-68
2022/08/24 06:48:23;;;;;;;9.02;6.70;;;20.20;99.90;;;;;;5117719;28;20207;-68
2022/08/24 06:50:50;;;;;;;8.27;5.15;;;20.30;99.90;;;;;;5116387;28;20187;-68
2022/08/24 06:53:16;;;;;;;11.05;5.82;;;20.40;99.90;;;;;;5117686;28;20245;-68
2022/08/24 06:56:00;;;;;;;7.88;5.65;;;20.60;99.90;;;;;;5117685;28;20176;-68
2022/08/24 06:58:27;;;;;;;6.50;5.00;;;20.70;99.90;;;;;;5117524;28;20175;-67
2022/08/24 07:00:55;;;;;;;7.28;4.82;;;20.80;99.90;;;;;;5116131;28;20271;-68
2022/08/24 07:03:21;;;;;;;9.48;5.20;;;20.90;99.90;;;;;;5117251;28;20196;-68
2022/08/24 07:05:52;;;;;;;9.02;5.60;;;21.00;99.90;;;;;;5117346;28;20175;-68
2022/08/24 07:08:19;;;;;;;9.60;5.15;;;21.10;99.90;;;;;;5117294;28;20641;-68
2022/08/24 07:10:45;;;;;;;7.50;4.85;;;21.20;99.90;;;;;;5116009;28;20187;-68
2022/08/24 07:13:13;;;;;;;7.53;4.97;;;21.30;99.90;;;;;;5116908;28;20237;-68
2022/08/24 07:15:39;;;;;;;6.40;4.40;;;21.40;99.90;;;;;;5115835;28;20177;-68
2022/08/24 07:18:08;;;;;;;8.13;4.53;;;21.50;99.90;;;;;;5115809;28;20181;-70
2022/08/24 07:20:35;;;;;;;7.55;4.35;;;21.60;99.90;;;;;;5117394;28;20281;-68
2022/08/24 07:23:06;;;;;;;6.38;4.78;;;21.80;99.90;;;;;;5116942;28;20271;-68
2022/08/24 07:25:32;;;;;;;7.15;4.28;;;21.90;99.90;;;;;;5117328;27;20286;-68
2022/08/24 07:27:59;;;;;;;6.55;4.45;;;22.00;99.90;;;;;;5116767;28;20172;-68
2022/08/24 07:30:26;;;;;;;8.95;4.93;;;22.10;99.90;;;;;;5115556;28;20188;-68
2022/08/24 07:32:53;;;;;;;7.22;4.35;;;22.20;99.90;;;;;;5115567;28;20200;-68
2022/08/24 07:35:18;;;;;;;4.80;3.67;;;22.30;99.90;;;;;;5116823;28;20229;-68
2022/08/24 07:37:44;;;;;;;6.30;4.20;;;22.30;99.90;;;;;;5115480;28;20649;-68
2022/08/24 07:40:11;;;;;;;6.55;4.65;;;22.40;99.90;;;;;;5116696;28;20668;-68
2022/08/24 07:42:38;;;;;;;29.35;8.55;;;22.50;99.90;;;;;;5115084;28;20199;-68
2022/08/24 07:45:05;;;;;;;15.15;5.22;;;22.60;99.90;;;;;;5115282;28;20226;-68
2022/08/24 07:47:31;;;;;;;6.78;4.25;;;22.70;99.90;;;;;;5116529;28;20262;-68
2022/08/24 07:49:57;;;;;;;7.20;4.32;;;22.80;99.90;;;;;;5116588;28;20629;-67
2022/08/24 07:52:23;;;;;;;7.68;4.40;;;22.80;99.90;;;;;;5115896;28;20267;-68
2022/08/24 07:54:48;;;;;;;12.05;4.70;;;22.90;99.90;;;;;;5116448;28;20279;-67
2022/08/24 07:57:14;;;;;;;17.27;5.00;;;23.00;99.90;;;;;;5116428;28;20173;-68
2022/08/24 07:59:40;;;;;;;8.45;4.38;;;23.10;99.90;;;;;;5116097;28;20219;-68
2022/08/24 08:02:07;;;;;;;10.60;4.63;;;23.10;99.90;;;;;;5116195;28;20668;-68
2022/08/24 08:04:33;;;;;;;7.00;4.05;;;23.20;99.90;;;;;;5114949;28;20211;-68
2022/08/24 08:07:02;;;;;;;5.43;4.18;;;23.30;99.90;;;;;;5116037;28;20180;-68
2022/08/24 08:09:28;;;;;;;7.05;4.18;;;23.40;99.90;;;;;;5116143;28;20173;-68
2022/08/24 08:11:53;;;;;;;7.15;4.03;;;23.50;99.90;;;;;;5116084;28;20179;-68
2022/08/24 08:14:19;;;;;;;10.38;4.32;;;23.70;99.90;;;;;;5115853;28;20225;-68
2022/08/24 08:16:45;;;;;;;12.52;3.97;;;23.80;99.90;;;;;;5116403;28;20173;-68
2022/08/24 08:19:11;;;;;;;13.68;3.90;;;23.90;99.90;;;;;;5115815;28;20742;-67
2022/08/24 08:24:28;;;;;;;37.15;8.85;;;24.10;99.90;;;;;;5116120;28;20205;-68
2022/08/24 08:26:56;;;;;;;8.95;3.97;;;24.20;99.90;;;;;;5115830;28;20173;-68
2022/08/24 08:29:23;;;;;;;5.88;3.47;;;24.30;99.90;;;;;;5114252;28;20204;-68
2022/08/24 08:31:51;;;;;;;4.90;2.95;;;24.40;99.90;;;;;;5114357;28;20244;-68
2022/08/24 08:34:17;;;;;;;8.73;5.70;;;24.50;99.90;;;;;;5115932;28;20169;-68
2022/08/24 08:36:43;;;;;;;6.55;3.75;;;24.60;99.90;;;;;;5115616;28;20173;-68
2022/08/24 08:39:13;;;;;;;6.15;3.47;;;24.60;99.90;;;;;;5114254;28;20568;-68
2022/08/24 08:41:51;;;;;;;16.88;5.30;;;24.70;99.90;;;;;;5115587;28;20402;-68
2022/08/24 08:44:39;;;;;;;6.60;3.58;;;24.80;99.90;;;;;;5115806;28;20153;-69
2022/08/24 08:47:42;;;;;;;5.53;3.22;;;25.00;99.90;;;;;;5116206;28;20157;-69
2022/08/24 08:50:25;;;;;;;4.95;2.90;;;25.10;99.90;;;;;;5115015;28;20259;-69
2022/08/24 08:53:15;;;;;;;14.15;4.97;;;25.20;99.90;;;;;;5115552;28;20692;-69
2022/08/24 08:56:29;;;;;;;5.75;3.10;;;25.30;99.90;;;;;;5115536;28;20164;-69
2022/08/24 08:59:06;;;;;;;5.63;2.95;;;25.50;99.90;;;;;;5100453;28;20250;-69
2022/08/24 09:01:59;;;;;;;29.52;6.05;;;25.70;99.90;;;;;;5116027;28;20209;-69
2022/08/24 09:04:59;;;;;;;17.77;4.18;;;25.90;99.90;;;;;;5115115;28;20243;-69
2022/08/24 09:07:30;;;;;;;5.32;3.10;;;26.10;99.90;;;;;;5104586;28;20170;-69
2022/08/24 09:10:16;;;;;;;5.13;2.78;;;26.30;99.90;;;;;;5095114;28;20161;-69
2022/08/24 09:13:15;;;;;;;4.45;2.97;;;26.60;99.90;;;;;;5094428;28;20258;-69
2022/08/24 09:16:03;;;;;;;5.35;2.70;;;26.80;99.90;;;;;;5094754;28;20202;-69
2022/08/24 09:18:58;;;;;;;7.20;2.85;;;27.00;99.90;;;;;;5095327;28;20230;-69
2022/08/24 09:21:51;;;;;;;5.65;2.92;;;27.20;99.90;;;;;;5094481;28;20258;-69
2022/08/24 09:24:42;;;;;;;6.00;2.95;;;27.40;99.90;;;;;;5093307;28;20177;-69
2022/08/24 09:27:33;;;;;;;5.90;2.88;;;27.50;99.90;;;;;;5094889;28;20158;-69
2022/08/24 09:30:08;;;;;;;4.60;2.92;;;27.70;99.90;;;;;;5092996;28;20181;-70
2022/08/24 09:32:34;;;;;;;3.97;2.95;;;27.80;99.90;;;;;;5094612;28;20264;-69
2022/08/24 09:35:38;;;;;;;4.07;2.65;;;28.00;99.90;;;;;;5094629;28;20669;-69
2022/08/24 09:38:22;;;;;;;4.25;2.72;;;28.10;99.90;;;;;;5094036;28;20237;-70
2022/08/24 09:40:59;;;;;;;6.55;2.90;;;28.30;99.90;;;;;;5094405;28;20230;-70
2022/08/24 09:43:43;;;;;;;3.17;2.20;;;28.40;99.90;;;;;;5094022;28;20607;-69
2022/08/24 09:46:30;;;;;;;3.42;2.70;;;28.50;99.90;;;;;;5094650;28;20173;-69
2022/08/24 09:49:27;;;;;;;5.60;2.42;;;28.60;99.90;;;;;;5094723;28;20165;-70
2022/08/24 09:51:52;;;;;;;4.35;2.60;;;28.70;99.90;;;;;;5093929;28;20204;-68
2022/08/24 09:54:44;;;;;;;3.45;2.40;;;28.70;99.90;;;;;;5093955;28;20638;-71
2022/08/24 09:57:31;;;;;;;4.45;2.88;;;28.80;99.90;;;;;;5092742;28;20638;-70
2022/08/24 10:00:13;;;;;;;3.53;2.35;;;29.00;99.90;;;;;;5093558;28;20193;-67
2022/08/24 10:02:47;;;;;;;5.00;2.53;;;29.10;99.90;;;;;;5093853;28;20448;-67
2022/08/24 10:05:51;;;;;;;6.32;2.65;;;29.10;99.90;;;;;;5092539;28;20653;-67
2022/08/24 10:08:35;;;;;;;12.52;3.03;;;29.10;99.90;;;;;;5093588;28;20201;-69
2022/08/24 10:11:19;;;;;;;6.90;2.92;;;29.10;99.90;;;;;;5092571;28;20177;-67
2022/08/24 10:14:17;;;;;;;5.13;2.88;;;29.10;99.90;;;;;;5093554;28;20299;-67
2022/08/24 10:16:48;;;;;;;4.60;2.75;;;29.10;99.90;;;;;;5093576;28;20174;-70
2022/08/24 10:19:53;;;;;;;4.40;2.80;;;29.00;99.90;;;;;;5092058;28;20242;-70
2022/08/24 10:22:37;;;;;;;4.25;2.78;;;29.00;99.90;;;;;;5093095;28;20209;-70
2022/08/24 10:25:41;;;;;;;8.57;2.83;;;29.10;99.90;;;;;;5092426;28;20602;-70
2022/08/24 10:28:46;;;;;;;4.28;2.88;;;29.10;99.90;;;;;;5093297;28;20209;-70
2022/08/24 10:31:22;;;;;;;4.43;2.30;;;29.30;99.90;;;;;;5092391;28;20230;-69
2022/08/24 10:33:57;;;;;;;6.90;3.28;;;29.40;99.90;;;;;;5093674;28;20189;-68
2022/08/24 10:36:37;;;;;;;7.32;2.70;;;29.40;99.90;;;;;;5093558;28;20164;-68
2022/08/24 10:39:42;;;;;;;6.85;2.50;;;29.40;99.90;;;;;;5093396;28;20204;-68
2022/08/24 10:45:35;;;;;;;5.15;2.33;;;29.40;99.90;;;;;;5093144;28;20230;-68
2022/08/24 10:48:12;;;;;;;3.97;2.85;;;29.50;99.90;;;;;;5092194;28;20169;-68
2022/08/24 10:51:15;;;;;;;4.88;2.97;;;29.60;99.90;;;;;;5093450;28;20236;-68
2022/08/24 10:53:48;;;;;;;3.97;2.47;;;29.60;99.90;;;;;;5093763;28;20204;-68
2022/08/24 10:56:28;;;;;;;5.55;2.90;;;29.70;99.90;;;;;;5093846;28;20189;-68
2022/08/24 10:59:02;;;;;;;3.47;2.42;;;29.80;99.90;;;;;;5091910;28;20715;-68
2022/08/24 11:01:32;;;;;;;4.20;2.90;;;29.90;99.90;;;;;;5093579;28;20248;-68
2022/08/24 11:04:00;;;;;;;4.07;2.60;;;30.00;99.90;;;;;;5091977;28;20549;-68
2022/08/24 11:06:38;;;;;;;7.45;3.17;;;30.10;99.90;;;;;;5091987;28;20196;-68
2022/08/24 11:09:16;;;;;;;4.30;2.55;;;30.30;99.90;;;;;;5092032;28;20194;-68
2022/08/24 11:11:45;;;;;;;5.20;2.85;;;30.50;99.90;;;;;;5092070;28;20176;-68
2022/08/24 11:14:30;;;;;;;7.68;2.80;;;30.60;99.90;;;;;;5093092;28;20197;-68
2022/08/24 11:17:18;;;;;;;5.63;2.67;;;30.60;99.90;;;;;;5092025;28;20191;-69
2022/08/24 11:19:45;;;;;;;3.15;2.55;;;30.80;99.90;;;;;;5093348;28;20579;-69
2022/08/24 11:22:31;;;;;;;7.40;2.80;;;30.90;99.90;;;;;;5093654;28;20185;-69
2022/08/24 11:25:01;;;;;;;4.18;2.55;;;30.90;99.90;;;;;;5091991;28;20519;-69
2022/08/24 11:27:35;;;;;;;3.38;2.47;;;31.00;99.90;;;;;;5095524;28;20267;-69
2022/08/24 11:30:26;;;;;;;8.75;2.40;;;31.10;99.90;;;;;;5096839;28;20622;-69
2022/08/24 11:33:02;;;;;;;5.35;2.83;;;31.30;99.90;;;;;;5096858;28;20201;-69
2022/08/24 11:35:38;;;;;;;14.43;3.58;;;31.50;99.90;;;;;;5097272;28;20153;-69
2022/08/24 11:38:17;;;;;;;7.05;3.30;;;31.70;99.90;;;;;;5097068;28;20215;-67
2022/08/24 11:41:11;;;;;;;6.25;3.00;;;31.90;99.90;;;;;;5095518;28;20254;-67
2022/08/24 11:43:58;;;;;;;4.43;2.33;;;32.00;99.90;;;;;;5094919;28;20733;-67
2022/08/24 11:46:40;;;;;;;4.25;3.13;;;32.20;99.90;;;;;;5096856;28;20161;-67
2022/08/24 11:49:23;;;;;;;6.15;3.00;;;32.30;99.90;;;;;;5096352;28;20681;-68
2022/08/24 11:51:57;;;;;;;8.20;3.00;;;32.20;99.90;;;;;;5094902;28;20222;-67
2022/08/24 11:54:29;;;;;;;3.75;2.42;;;32.50;99.90;;;;;;5096145;28;20188;-67
2022/08/24 11:57:12;;;;;;;4.13;2.63;;;32.60;99.90;;;;;;5096207;28;20181;-68
2022/08/24 11:59:56;;;;;;;4.45;2.50;;;32.60;99.90;;;;;;5094701;28;20204;-67
2022/08/24 12:02:22;;;;;;;5.38;2.50;;;32.80;99.90;;;;;;5096225;28;20551;-67
2022/08/24 12:05:19;;;;;;;3.65;2.55;;;33.00;99.90;;;;;;5096068;28;20173;-67
2022/08/24 12:08:06;;;;;;;4.43;2.65;;;33.10;99.90;;;;;;5097253;28;20205;-68
2022/08/24 12:10:56;;;;;;;6.00;2.85;;;33.20;99.90;;;;;;5097987;28;20517;-69
2022/08/24 12:13:38;;;;;;;6.55;2.63;;;33.30;99.90;;;;;;5097114;28;20666;-68
2022/08/24 12:16:39;;;;;;;5.88;2.80;;;33.40;99.90;;;;;;5097175;28;20244;-68
2022/08/24 12:19:13;;;;;;;6.25;3.20;;;33.50;99.90;;;;;;5058567;28;20603;-68
2022/08/24 12:21:44;;;;;;;6.35;2.33;;;33.60;99.90;;;;;;5096434;28;20164;-68
2022/08/24 12:24:33;;;;;;;5.80;2.30;;;33.70;99.90;;;;;;5096303;28;20200;-68
2022/08/24 12:27:27;;;;;;;5.57;2.85;;;33.90;99.90;;;;;;5095898;28;20211;-68
2022/08/24 12:30:10;;;;;;;5.00;2.63;;;34.00;99.90;;;;;;5096043;28;20181;-68
2022/08/24 12:32:42;;;;;;;5.57;2.83;;;34.00;99.90;;;;;;5101318;28;20252;-67
2022/08/24 12:35:36;;;;;;;6.40;2.60;;;34.30;99.90;;;;;;5102499;28;20157;-67
2022/08/24 12:38:16;;;;;;;5.05;2.97;;;34.30;99.90;;;;;;5106104;28;20238;-68
2022/08/24 12:40:46;;;;;;;3.95;2.85;;;34.50;99.90;;;;;;5102371;28;20203;-68
2022/08/24 12:43:24;;;;;;;5.28;2.47;;;34.50;99.90;;;;;;5103647;28;20196;-68
2022/08/24 12:45:50;;;;;;;4.88;2.55;;;34.50;99.90;;;;;;5096081;28;20164;-68
2022/08/24 12:48:24;;;;;;;4.20;2.50;;;34.70;99.90;;;;;;5096302;28;20256;-68
2022/08/24 12:51:13;;;;;;;4.55;2.30;;;34.90;99.90;;;;;;5096197;28;20169;-68
2022/08/24 12:54:02;;;;;;;5.07;2.47;;;35.10;99.90;;;;;;5095847;28;20189;-68
2022/08/24 12:56:49;;;;;;;4.28;2.55;;;35.00;99.90;;;;;;5095836;28;20157;-68
2022/08/24 12:59:23;;;;;;;3.30;2.28;;;35.10;99.90;;;;;;5094865;28;20326;-68
2022/08/24 13:02:02;;;;;;;3.97;2.40;;;35.00;99.90;;;;;;5094896;28;20668;-68
2022/08/24 13:04:43;;;;;;;5.05;2.75;;;35.30;99.90;;;;;;5095142;28;20241;-68
2022/08/24 13:07:26;;;;;;;3.80;2.72;;;35.40;99.90;;;;;;5093771;28;20522;-68
2022/08/24 13:09:54;;;;;;;4.43;2.55;;;35.50;99.90;;;;;;5095038;28;20522;-68
2022/08/24 13:12:41;;;;;;;8.25;2.88;;;35.60;99.90;;;;;;5094610;28;20238;-68
2022/08/24 13:15:24;;;;;;;3.55;2.60;;;35.40;99.90;;;;;;5094469;28;20185;-68
2022/08/24 13:17:52;;;;;;;5.75;2.72;;;35.30;99.90;;;;;;5094520;28;20257;-68
2022/08/24 13:20:23;;;;;;;5.82;2.35;;;35.50;99.90;;;;;;5094402;28;20212;-67
2022/08/24 13:23:10;;;;;;;5.20;2.63;;;35.50;99.90;;;;;;5094417;28;20195;-67